Wetterdaten: Woche 23.05.05 - 29.05.05 (KW21)
Datum Zeit Temperatur Luftfeuchte Luftdruck Niederschlag Wind Richtung Sonne Solar Taupunkt Windchill
23.05.2005 00:00 11.5 C 100 % 1016.1 hPa 0.0 l/m 0.0 km/h (0 Bft) N 0.00 h 0 W/m 11.5 C 11.5 C
23.05.2005 01:00 11.4 C 100 % 1015.9 hPa 0.0 l/m 0.0 km/h (0 Bft) N 0.00 h 0 W/m 11.4 C 11.4 C
23.05.2005 02:00 11.5 C 100 % 1015.8 hPa 0.0 l/m 0.0 km/h (0 Bft) N 0.00 h 0 W/m 11.5 C 11.5 C
23.05.2005 03:00 11.5 C 100 % 1015.9 hPa 1.3 l/m 0.0 km/h (0 Bft) N 0.00 h 0 W/m 11.5 C 11.5 C
23.05.2005 04:00 11.4 C 100 % 1015.9 hPa 3.9 l/m 0.3 km/h (0 Bft) W-NW 0.00 h 0 W/m 11.4 C 11.4 C
23.05.2005 05:00 11.4 C 100 % 1015.9 hPa 2.0 l/m 1.1 km/h (0 Bft) O-SO 0.00 h 2 W/m 11.4 C 11.4 C
23.05.2005 06:00 11.4 C 100 % 1015.9 hPa 1.3 l/m 1.5 km/h (1 Bft) W-NW 0.00 h 11 W/m 11.4 C 11.4 C
23.05.2005 07:00 11.2 C 99 % 1017.0 hPa 1.0 l/m 7.8 km/h (2 Bft) NW 0.00 h 27 W/m 11.1 C 11.2 C
23.05.2005 08:00 11.2 C 98 % 1017.3 hPa 1.3 l/m 4.5 km/h (1 Bft) NW 0.00 h 41 W/m 11.0 C 11.2 C
23.05.2005 09:00 11.3 C 98 % 1018.1 hPa 2.0 l/m 3.8 km/h (1 Bft) NW 0.00 h 86 W/m 11.0 C 11.3 C
23.05.2005 10:00 11.8 C 98 % 1019.0 hPa 0.6 l/m 0.1 km/h (0 Bft) N 0.00 h 158 W/m 11.5 C 11.8 C
23.05.2005 11:00 11.8 C 96 % 1019.0 hPa 1.6 l/m 4.7 km/h (1 Bft) W-NW 0.00 h 151 W/m 11.3 C 11.8 C
23.05.2005 12:00 12.0 C 95 % 1019.7 hPa 1.0 l/m 5.9 km/h (2 Bft) W-NW 0.00 h 199 W/m 11.2 C 12.0 C
23.05.2005 13:00 12.4 C 97 % 1020.0 hPa 0.3 l/m 0.7 km/h (0 Bft) O 0.00 h 209 W/m 11.9 C 12.4 C
23.05.2005 14:00 12.0 C 97 % 1020.4 hPa 0.6 l/m 1.6 km/h (1 Bft) O 0.00 h 140 W/m 11.5 C 12.0 C
23.05.2005 15:00 13.1 C 96 % 1020.9 hPa 0.0 l/m 2.2 km/h (1 Bft) O 0.53 h 420 W/m 12.4 C 13.1 C
23.05.2005 16:00 13.7 C 90 % 1020.8 hPa 0.6 l/m 5.4 km/h (1 Bft) SO 0.37 h 311 W/m 12.0 C 13.7 C
23.05.2005 17:00 12.5 C 93 % 1021.7 hPa 0.3 l/m 0.3 km/h (0 Bft) NO 0.10 h 205 W/m 11.4 C 12.5 C
23.05.2005 18:00 12.4 C 94 % 1022.0 hPa 0.0 l/m 1.2 km/h (1 Bft) W-NW 0.13 h 140 W/m 11.5 C 12.4 C
23.05.2005 19:00 12.6 C 92 % 1022.4 hPa 0.0 l/m 1.0 km/h (0 Bft) O-SO 0.53 h 144 W/m 11.2 C 12.6 C
23.05.2005 20:00 11.6 C 94 % 1023.2 hPa 0.0 l/m 1.0 km/h (0 Bft) SO 0.00 h 19 W/m 10.7 C 11.6 C
23.05.2005 21:00 11.3 C 98 % 1024.0 hPa 0.0 l/m 0.0 km/h (0 Bft) N 0.00 h 4 W/m 10.9 C 11.3 C
23.05.2005 22:00 11.0 C 99 % 1024.3 hPa 0.0 l/m 0.0 km/h (0 Bft) N 0.00 h 0 W/m 10.9 C 11.0 C
23.05.2005 23:00 10.1 C 100 % 1024.8 hPa 0.0 l/m 0.0 km/h (0 Bft) N 0.00 h 0 W/m 10.1 C 10.1 C
24.05.2005 00:00 9.0 C 100 % 1025.6 hPa 0.0 l/m 0.2 km/h (0 Bft) SO 0.00 h 0 W/m 9.0 C 9.0 C
24.05.2005 01:00 8.2 C 100 % 1025.7 hPa 0.0 l/m 0.1 km/h (0 Bft) N 0.00 h 0 W/m 8.2 C 8.2 C
24.05.2005 02:00 8.6 C 100 % 1025.7 hPa 0.0 l/m 0.0 km/h (0 Bft) N 0.00 h 0 W/m 8.6 C 8.6 C
24.05.2005 03:00 9.0 C 100 % 1025.6 hPa 0.0 l/m 0.4 km/h (0 Bft) SO 0.00 h 0 W/m 9.0 C 9.0 C
24.05.2005 04:00 8.7 C 100 % 1025.7 hPa 0.0 l/m 6.1 km/h (2 Bft) O-SO 0.00 h 0 W/m 8.7 C 7.9 C
24.05.2005 05:00 8.6 C 100 % 1025.7 hPa 0.0 l/m 3.9 km/h (1 Bft) O-SO 0.00 h 5 W/m 8.6 C 8.2 C
24.05.2005 06:00 9.4 C 100 % 1025.6 hPa 0.0 l/m 0.0 km/h (0 Bft) N 0.00 h 20 W/m 9.4 C 9.4 C
24.05.2005 07:00 10.1 C 100 % 1026.0 hPa 0.0 l/m 0.0 km/h (0 Bft) N 0.00 h 66 W/m 10.1 C 10.1 C
24.05.2005 08:00 10.6 C 97 % 1026.4 hPa 0.0 l/m 0.4 km/h (0 Bft) O-SO 0.00 h 125 W/m 10.1 C 10.6 C
24.05.2005 09:00 11.1 C 92 % 1026.4 hPa 0.0 l/m 2.1 km/h (1 Bft) O-SO 0.00 h 192 W/m 9.9 C 11.1 C
24.05.2005 10:00 12.4 C 86 % 1026.2 hPa 0.0 l/m 0.5 km/h (0 Bft) NO 0.70 h 392 W/m 10.1 C 12.4 C
24.05.2005 11:00 13.9 C 80 % 1025.8 hPa 0.0 l/m 1.6 km/h (1 Bft) O-SO 0.93 h 723 W/m 10.6 C 13.9 C
24.05.2005 12:00 15.8 C 72 % 1024.7 hPa 0.0 l/m 3.1 km/h (1 Bft) SW 1.00 h 861 W/m 10.6 C 15.8 C
24.05.2005 13:00 18.0 C 57 % 1024.4 hPa 0.0 l/m 4.4 km/h (1 Bft) O-SO 1.00 h 851 W/m 9.3 C 18.0 C
24.05.2005 14:00 19.3 C 50 % 1024.0 hPa 0.0 l/m 3.8 km/h (1 Bft) W-NW 1.00 h 860 W/m 8.4 C 19.3 C
24.05.2005 15:00 20.5 C 43 % 1023.5 hPa 0.0 l/m 1.2 km/h (1 Bft) O-SO 1.00 h 805 W/m 7.5 C 20.5 C
24.05.2005 16:00 21.4 C 39 % 1022.9 hPa 0.0 l/m 1.1 km/h (0 Bft) SO 1.00 h 693 W/m 6.9 C 21.4 C
24.05.2005 17:00 21.5 C 36 % 1022.9 hPa 0.0 l/m 2.5 km/h (1 Bft) O-SO 1.00 h 562 W/m 5.6 C 21.5 C
24.05.2005 18:00 21.1 C 36 % 1023.0 hPa 0.0 l/m 0.9 km/h (0 Bft) W 1.00 h 419 W/m 5.5 C 21.1 C
24.05.2005 19:00 20.0 C 40 % 1023.2 hPa 0.0 l/m 1.2 km/h (1 Bft) W 1.00 h 253 W/m 5.9 C 20.0 C
24.05.2005 20:00 17.9 C 53 % 1024.4 hPa 0.0 l/m 0.5 km/h (0 Bft) SO 0.90 h 71 W/m 8.0 C 17.9 C
24.05.2005 21:00 14.0 C 74 % 1025.0 hPa 0.0 l/m 5.4 km/h (1 Bft) O-SO 0.00 h 8 W/m 9.5 C 14.0 C
24.05.2005 22:00 12.1 C 82 % 1026.2 hPa 0.0 l/m 0.6 km/h (0 Bft) O-SO 0.00 h 0 W/m 9.2 C 12.1 C
24.05.2005 23:00 10.6 C 90 % 1026.4 hPa 0.0 l/m 0.5 km/h (0 Bft) O-SO 0.00 h 0 W/m 9.0 C 10.6 C
25.05.2005 00:00 9.7 C 94 % 1026.6 hPa 0.0 l/m 0.9 km/h (0 Bft) O-SO 0.00 h 0 W/m 8.8 C 9.7 C
25.05.2005 01:00 8.8 C 98 % 1026.7 hPa 0.0 l/m 1.2 km/h (1 Bft) O-SO 0.00 h 0 W/m 8.5 C 8.8 C
25.05.2005 02:00 8.2 C 100 % 1026.8 hPa 0.0 l/m 2.5 km/h (1 Bft) O-SO 0.00 h 0 W/m 8.1 C 7.9 C
25.05.2005 03:00 7.6 C 100 % 1027.9 hPa 0.0 l/m 0.0 km/h (0 Bft) N 0.00 h 0 W/m 7.6 C 7.6 C
25.05.2005 04:00 7.3 C 100 % 1027.9 hPa 0.0 l/m 0.6 km/h (0 Bft) O-SO 0.00 h 0 W/m 7.3 C 7.3 C
25.05.2005 05:00 6.9 C 100 % 1028.0 hPa 0.0 l/m 1.1 km/h (0 Bft) O-SO 0.10 h 12 W/m 6.9 C 6.8 C
25.05.2005 06:00 7.5 C 100 % 1027.9 hPa 0.0 l/m 0.0 km/h (0 Bft) N 0.03 h 44 W/m 7.5 C 7.5 C
25.05.2005 07:00 9.3 C 96 % 1027.7 hPa 0.0 l/m 0.1 km/h (0 Bft) N 1.00 h 281 W/m 8.7 C 9.3 C
25.05.2005 08:00 11.7 C 84 % 1027.3 hPa 0.0 l/m 0.2 km/h (0 Bft) N 1.00 h 436 W/m 9.1 C 11.7 C
25.05.2005 09:00 14.4 C 73 % 1027.0 hPa 0.0 l/m 1.5 km/h (1 Bft) W-NW 1.00 h 579 W/m 9.6 C 14.4 C
25.05.2005 10:00 17.7 C 62 % 1026.1 hPa 0.0 l/m 1.7 km/h (1 Bft) W-NW 1.00 h 706 W/m 10.3 C 17.7 C
25.05.2005 11:00 20.5 C 56 % 1025.1 hPa 0.0 l/m 3.0 km/h (1 Bft) O-SO 1.00 h 798 W/m 11.6 C 20.5 C
25.05.2005 12:00 22.5 C 50 % 1024.9 hPa 0.0 l/m 9.3 km/h (2 Bft) O-SO 1.00 h 854 W/m 11.7 C 22.5 C
25.05.2005 13:00 23.9 C 45 % 1023.8 hPa 0.0 l/m 12.8 km/h (3 Bft) O-SO 1.00 h 868 W/m 11.4 C 23.9 C
25.05.2005 14:00 25.0 C 40 % 1023.5 hPa 0.0 l/m 10.0 km/h (2 Bft) O-SO 1.00 h 833 W/m 10.6 C 25.0 C
25.05.2005 15:00 25.8 C 39 % 1023.0 hPa 0.0 l/m 13.9 km/h (3 Bft) O-SO 1.00 h 781 W/m 10.7 C 25.8 C
25.05.2005 16:00 26.5 C 38 % 1022.3 hPa 0.0 l/m 12.8 km/h (3 Bft) O-SO 1.00 h 684 W/m 11.0 C 26.5 C
25.05.2005 17:00 26.5 C 35 % 1022.3 hPa 0.0 l/m 12.2 km/h (2 Bft) O-SO 1.00 h 568 W/m 9.6 C 26.5 C
25.05.2005 18:00 25.9 C 33 % 1022.4 hPa 0.0 l/m 14.5 km/h (3 Bft) O-SO 1.00 h 442 W/m 8.3 C 25.9 C
25.05.2005 19:00 24.6 C 37 % 1021.8 hPa 0.0 l/m 6.6 km/h (2 Bft) O-SO 0.98 h 253 W/m 9.1 C 24.6 C
25.05.2005 20:00 22.0 C 47 % 1021.8 hPa 0.0 l/m 1.8 km/h (1 Bft) O 0.93 h 51 W/m 10.1 C 22.0 C
25.05.2005 21:00 17.8 C 67 % 1023.3 hPa 0.0 l/m 1.9 km/h (1 Bft) O 0.00 h 10 W/m 11.5 C 17.8 C
25.05.2005 22:00 15.5 C 78 % 1023.7 hPa 0.0 l/m 1.9 km/h (1 Bft) O 0.00 h 0 W/m 11.7 C 15.5 C
25.05.2005 23:00 14.3 C 83 % 1023.9 hPa 0.0 l/m 1.5 km/h (1 Bft) O 0.00 h 0 W/m 11.3 C 14.3 C
26.05.2005 00:00 13.4 C 86 % 1024.0 hPa 0.0 l/m 0.0 km/h (0 Bft) N 0.00 h 0 W/m 11.2 C 13.4 C
26.05.2005 01:00 12.7 C 91 % 1023.2 hPa 0.0 l/m 0.1 km/h (0 Bft) O-SO 0.00 h 0 W/m 11.3 C 12.7 C
26.05.2005 02:00 12.1 C 95 % 1023.1 hPa 0.0 l/m 3.6 km/h (1 Bft) O-SO 0.00 h 0 W/m 11.3 C 12.1 C
26.05.2005 03:00 11.1 C 98 % 1023.2 hPa 0.0 l/m 0.3 km/h (0 Bft) O-SO 0.00 h 0 W/m 10.8 C 11.1 C
26.05.2005 04:00 10.6 C 100 % 1023.3 hPa 0.0 l/m 0.3 km/h (0 Bft) O-SO 0.00 h 0 W/m 10.6 C 10.6 C
26.05.2005 05:00 10.1 C 100 % 1023.4 hPa 0.0 l/m 0.0 km/h (0 Bft) N 0.00 h 9 W/m 10.0 C 10.1 C
26.05.2005 06:00 10.4 C 99 % 1023.3 hPa 0.0 l/m 0.0 km/h (0 Bft) N 0.00 h 42 W/m 10.2 C 10.4 C
26.05.2005 07:00 12.4 C 92 % 1023.5 hPa 0.0 l/m 0.0 km/h (0 Bft) N 0.97 h 284 W/m 11.2 C 12.4 C
26.05.2005 08:00 14.9 C 81 % 1023.7 hPa 0.0 l/m 0.3 km/h (0 Bft) NO 1.00 h 438 W/m 11.7 C 14.9 C
26.05.2005 09:00 17.4 C 70 % 1022.4 hPa 0.0 l/m 1.6 km/h (1 Bft) W-NW 1.00 h 578 W/m 11.9 C 17.4 C
26.05.2005 10:00 20.1 C 61 % 1022.1 hPa 0.0 l/m 1.8 km/h (1 Bft) W-NW 1.00 h 703 W/m 12.3 C 20.1 C
26.05.2005 11:00 22.2 C 55 % 1021.8 hPa 0.0 l/m 2.8 km/h (1 Bft) W-NW 1.00 h 797 W/m 12.7 C 22.2 C
26.05.2005 12:00 24.2 C 51 % 1020.5 hPa 0.0 l/m 2.3 km/h (1 Bft) W-NW 1.00 h 847 W/m 13.4 C 24.2 C
26.05.2005 13:00 26.2 C 45 % 1019.7 hPa 0.0 l/m 3.4 km/h (1 Bft) W-NW 1.00 h 860 W/m 13.5 C 26.2 C
26.05.2005 14:00 27.9 C 40 % 1019.0 hPa 0.0 l/m 2.5 km/h (1 Bft) NW 1.00 h 840 W/m 13.2 C 27.9 C
26.05.2005 15:00 28.9 C 38 % 1018.4 hPa 0.0 l/m 2.8 km/h (1 Bft) O-SO 1.00 h 785 W/m 13.3 C 28.9 C
26.05.2005 16:00 30.2 C 32 % 1017.7 hPa 0.0 l/m 1.3 km/h (1 Bft) W 1.00 h 697 W/m 11.4 C 30.2 C
26.05.2005 17:00 30.3 C 29 % 1017.7 hPa 0.0 l/m 1.4 km/h (1 Bft) W 1.00 h 573 W/m 10.0 C 30.3 C
26.05.2005 18:00 29.6 C 31 % 1017.4 hPa 0.0 l/m 1.6 km/h (1 Bft) W-NW 1.00 h 439 W/m 10.6 C 29.6 C
26.05.2005 19:00 27.9 C 37 % 1016.9 hPa 0.0 l/m 0.3 km/h (0 Bft) W-NW 1.00 h 222 W/m 12.0 C 27.9 C
26.05.2005 20:00 24.3 C 53 % 1017.4 hPa 0.0 l/m 1.4 km/h (1 Bft) O-SO 0.70 h 53 W/m 14.0 C 24.3 C
26.05.2005 21:00 19.9 C 70 % 1018.7 hPa 0.0 l/m 1.0 km/h (0 Bft) O-SO 0.00 h 7 W/m 14.3 C 19.9 C
26.05.2005 22:00 17.8 C 80 % 1019.2 hPa 0.0 l/m 0.6 km/h (0 Bft) O-SO 0.00 h 0 W/m 14.2 C 17.8 C
26.05.2005 23:00 16.7 C 85 % 1019.4 hPa 0.0 l/m 0.1 km/h (0 Bft) O-SO 0.00 h 0 W/m 14.0 C 16.7 C
27.05.2005 00:00 15.4 C 88 % 1019.6 hPa 0.0 l/m 0.1 km/h (0 Bft) O-SO 0.00 h 0 W/m 13.5 C 15.4 C
27.05.2005 01:00 14.5 C 93 % 1019.7 hPa 0.0 l/m 1.6 km/h (1 Bft) O-SO 0.00 h 0 W/m 13.4 C 14.5 C
27.05.2005 02:00 13.8 C 96 % 1019.8 hPa 0.0 l/m 0.9 km/h (0 Bft) O-SO 0.00 h 0 W/m 13.2 C 13.8 C
27.05.2005 03:00 13.4 C 98 % 1018.8 hPa 0.0 l/m 0.5 km/h (0 Bft) O-SO 0.00 h 0 W/m 13.1 C 13.4 C
27.05.2005 04:00 12.7 C 99 % 1018.9 hPa 0.0 l/m 0.2 km/h (0 Bft) O-SO 0.00 h 0 W/m 12.5 C 12.7 C
27.05.2005 05:00 12.1 C 99 % 1019.0 hPa 0.0 l/m 0.0 km/h (0 Bft) N 0.07 h 12 W/m 11.9 C 12.1 C
27.05.2005 06:00 12.3 C 98 % 1019.8 hPa 0.0 l/m 0.0 km/h (0 Bft) N 0.00 h 48 W/m 12.1 C 12.3 C
27.05.2005 07:00 14.0 C 93 % 1018.8 hPa 0.0 l/m 0.0 km/h (0 Bft) N 1.00 h 291 W/m 12.8 C 14.0 C
27.05.2005 08:00 16.5 C 80 % 1018.4 hPa 0.0 l/m 0.0 km/h (0 Bft) N 1.00 h 440 W/m 13.0 C 16.5 C
27.05.2005 09:00 19.3 C 69 % 1018.0 hPa 0.0 l/m 0.2 km/h (0 Bft) N 1.00 h 593 W/m 13.4 C 19.3 C
27.05.2005 10:00 22.3 C 59 % 1017.6 hPa 0.0 l/m 1.7 km/h (1 Bft) W-NW 1.00 h 673 W/m 14.0 C 22.3 C
27.05.2005 11:00 24.3 C 54 % 1017.3 hPa 0.0 l/m 3.1 km/h (1 Bft) W-NW 1.00 h 779 W/m 14.4 C 24.3 C
27.05.2005 12:00 26.7 C 44 % 1016.0 hPa 0.0 l/m 3.6 km/h (1 Bft) W-NW 1.00 h 853 W/m 13.3 C 26.7 C
27.05.2005 13:00 28.4 C 39 % 1015.8 hPa 0.0 l/m 2.2 km/h (1 Bft) W-NW 1.00 h 799 W/m 13.0 C 28.4 C
27.05.2005 14:00 29.9 C 33 % 1015.5 hPa 0.0 l/m 5.6 km/h (1 Bft) O-SO 1.00 h 859 W/m 11.7 C 29.9 C
27.05.2005 15:00 31.4 C 23 % 1014.4 hPa 0.0 l/m 2.4 km/h (1 Bft) NO 1.00 h 789 W/m 7.6 C 31.4 C
27.05.2005 16:00 31.3 C 28 % 1014.4 hPa 0.0 l/m 4.2 km/h (1 Bft) SO 1.00 h 585 W/m 10.2 C 31.3 C
27.05.2005 17:00 31.3 C 30 % 1013.4 hPa 0.0 l/m 9.6 km/h (2 Bft) O-SO 1.00 h 566 W/m 11.7 C 31.3 C
27.05.2005 18:00 31.0 C 26 % 1013.5 hPa 0.0 l/m 9.1 km/h (2 Bft) O-SO 1.00 h 459 W/m 8.7 C 31.0 C
27.05.2005 19:00 30.1 C 30 % 1013.6 hPa 0.0 l/m 3.1 km/h (1 Bft) O-SO 1.00 h 326 W/m 10.8 C 30.1 C
27.05.2005 20:00 27.4 C 40 % 1013.9 hPa 0.0 l/m 4.2 km/h (1 Bft) O-SO 1.00 h 118 W/m 12.3 C 27.4 C
27.05.2005 21:00 21.8 C 58 % 1014.6 hPa 0.0 l/m 0.5 km/h (0 Bft) O-SO 0.00 h 17 W/m 13.1 C 21.8 C
27.05.2005 22:00 19.2 C 70 % 1015.5 hPa 0.0 l/m 0.6 km/h (0 Bft) O-SO 0.00 h 0 W/m 13.7 C 19.2 C
27.05.2005 23:00 17.5 C 75 % 1016.2 hPa 0.0 l/m 2.9 km/h (1 Bft) O-SO 0.00 h 0 W/m 13.1 C 17.5 C
28.05.2005 00:00 16.3 C 79 % 1016.3 hPa 0.0 l/m 3.6 km/h (1 Bft) O-SO 0.00 h 0 W/m 12.5 C 16.3 C
28.05.2005 01:00 15.2 C 83 % 1016.5 hPa 0.0 l/m 3.1 km/h (1 Bft) O-SO 0.00 h 0 W/m 12.4 C 15.2 C
28.05.2005 02:00 14.4 C 87 % 1017.6 hPa 0.0 l/m 1.7 km/h (1 Bft) O-SO 0.00 h 0 W/m 12.3 C 14.4 C
28.05.2005 03:00 13.9 C 91 % 1017.7 hPa 0.0 l/m 1.5 km/h (1 Bft) O-SO 0.00 h 0 W/m 12.3 C 13.9 C
28.05.2005 04:00 13.1 C 95 % 1017.8 hPa 0.0 l/m 1.6 km/h (1 Bft) O-SO 0.00 h 0 W/m 12.4 C 13.1 C
28.05.2005 05:00 12.7 C 98 % 1018.9 hPa 0.0 l/m 1.1 km/h (0 Bft) O-SO 0.12 h 13 W/m 12.4 C 12.7 C
28.05.2005 06:00 13.4 C 97 % 1018.8 hPa 0.0 l/m 0.8 km/h (0 Bft) O-SO 0.00 h 46 W/m 12.9 C 13.4 C
28.05.2005 07:00 15.4 C 92 % 1018.5 hPa 0.0 l/m 1.2 km/h (1 Bft) SO 0.95 h 268 W/m 14.1 C 15.4 C
28.05.2005 08:00 18.5 C 79 % 1018.3 hPa 0.0 l/m 6.7 km/h (2 Bft) O-SO 1.00 h 398 W/m 14.8 C 18.5 C
28.05.2005 09:00 21.5 C 65 % 1017.8 hPa 0.0 l/m 3.0 km/h (1 Bft) O-SO 1.00 h 548 W/m 14.6 C 21.5 C
28.05.2005 10:00 24.0 C 54 % 1017.4 hPa 0.0 l/m 8.1 km/h (2 Bft) W-NW 1.00 h 679 W/m 14.0 C 24.0 C
28.05.2005 11:00 26.1 C 43 % 1017.2 hPa 0.0 l/m 13.8 km/h (3 Bft) W-NW 0.98 h 778 W/m 12.5 C 26.1 C
28.05.2005 12:00 27.3 C 41 % 1017.0 hPa 0.0 l/m 12.2 km/h (2 Bft) W-NW 1.02 h 832 W/m 12.8 C 27.3 C
28.05.2005 13:00 28.6 C 38 % 1016.2 hPa 0.0 l/m 14.1 km/h (3 Bft) W-NW 1.00 h 845 W/m 13.0 C 28.6 C
28.05.2005 14:00 30.0 C 37 % 1015.6 hPa 0.0 l/m 10.5 km/h (2 Bft) W-NW 1.00 h 827 W/m 13.7 C 30.0 C
28.05.2005 15:00 30.9 C 35 % 1015.0 hPa 0.0 l/m 7.2 km/h (2 Bft) W-NW 1.00 h 772 W/m 13.6 C 30.9 C
28.05.2005 16:00 31.9 C 30 % 1014.4 hPa 0.0 l/m 4.8 km/h (1 Bft) W-NW 1.00 h 678 W/m 12.2 C 31.9 C
28.05.2005 17:00 32.2 C 33 % 1014.1 hPa 0.0 l/m 1.3 km/h (1 Bft) W-NW 1.00 h 549 W/m 13.9 C 32.2 C
28.05.2005 18:00 31.4 C 37 % 1013.4 hPa 0.0 l/m 1.8 km/h (1 Bft) W-NW 1.00 h 377 W/m 15.1 C 31.4 C
28.05.2005 19:00 29.7 C 40 % 1013.7 hPa 0.0 l/m 1.5 km/h (1 Bft) O-SO 0.97 h 221 W/m 14.8 C 29.7 C
28.05.2005 20:00 26.7 C 48 % 1014.6 hPa 0.0 l/m 2.1 km/h (1 Bft) O-SO 0.92 h 63 W/m 14.9 C 26.7 C
28.05.2005 21:00 24.0 C 58 % 1015.5 hPa 0.0 l/m 1.0 km/h (0 Bft) O-SO 0.00 h 10 W/m 15.3 C 24.0 C
28.05.2005 22:00 22.0 C 67 % 1016.6 hPa 0.0 l/m 0.9 km/h (0 Bft) O-SO 0.00 h 0 W/m 15.6 C 22.0 C
28.05.2005 23:00 20.8 C 72 % 1016.8 hPa 0.0 l/m 7.1 km/h (2 Bft) O-SO 0.00 h 0 W/m 15.6 C 20.8 C
29.05.2005 00:00 20.2 C 71 % 1016.9 hPa 0.0 l/m 3.4 km/h (1 Bft) O-SO 0.00 h 0 W/m 14.8 C 20.2 C
29.05.2005 01:00 18.7 C 83 % 1017.0 hPa 0.0 l/m 0.0 km/h (0 Bft) N 0.00 h 0 W/m 15.7 C 18.7 C
29.05.2005 02:00 17.5 C 85 % 1017.2 hPa 0.0 l/m 3.4 km/h (1 Bft) O 0.00 h 0 W/m 15.0 C 17.5 C
29.05.2005 03:00 16.5 C 86 % 1017.4 hPa 0.0 l/m 0.8 km/h (0 Bft) O-SO 0.00 h 0 W/m 14.0 C 16.5 C
29.05.2005 04:00 15.4 C 93 % 1018.5 hPa 0.0 l/m 2.7 km/h (1 Bft) O-SO 0.00 h 0 W/m 14.2 C 15.4 C
29.05.2005 05:00 14.8 C 93 % 1018.6 hPa 0.0 l/m 1.2 km/h (1 Bft) O-SO 0.07 h 13 W/m 13.8 C 14.8 C
29.05.2005 06:00 15.1 C 92 % 1018.6 hPa 0.0 l/m 0.5 km/h (0 Bft) O-SO 0.00 h 50 W/m 13.9 C 15.1 C
29.05.2005 07:00 16.9 C 86 % 1018.3 hPa 0.0 l/m 0.7 km/h (0 Bft) O-SO 1.00 h 237 W/m 14.6 C 16.9 C
29.05.2005 08:00 18.8 C 79 % 1018.1 hPa 0.0 l/m 0.0 km/h (0 Bft) N 1.00 h 398 W/m 15.0 C 18.8 C
29.05.2005 09:00 21.3 C 67 % 1017.8 hPa 0.0 l/m 1.0 km/h (0 Bft) SO 1.00 h 542 W/m 14.8 C 21.3 C
29.05.2005 10:00 24.0 C 61 % 1016.7 hPa 0.0 l/m 4.3 km/h (1 Bft) O-SO 1.00 h 679 W/m 16.1 C 24.0 C
29.05.2005 11:00 25.7 C 53 % 1016.2 hPa 0.0 l/m 0.9 km/h (0 Bft) W-NW 1.00 h 779 W/m 15.2 C 25.7 C
29.05.2005 12:00 27.0 C 50 % 1016.0 hPa 0.0 l/m 1.6 km/h (1 Bft) W 1.00 h 834 W/m 15.6 C 27.0 C
29.05.2005 13:00 28.7 C 48 % 1014.8 hPa 0.0 l/m 4.5 km/h (1 Bft) O-SO 1.00 h 853 W/m 16.6 C 28.7 C
29.05.2005 14:00 30.1 C 42 % 1014.0 hPa 0.0 l/m 4.0 km/h (1 Bft) O-SO 1.00 h 834 W/m 15.6 C 30.1 C
29.05.2005 15:00 31.5 C 37 % 1013.4 hPa 0.0 l/m 3.1 km/h (1 Bft) NW 1.00 h 771 W/m 15.2 C 31.5 C
29.05.2005 16:00 32.1 C 32 % 1012.5 hPa 0.0 l/m 1.4 km/h (1 Bft) W-NW 1.00 h 677 W/m 13.3 C 32.1 C
29.05.2005 17:00 32.5 C 32 % 1012.2 hPa 0.0 l/m 0.6 km/h (0 Bft) W-NW 1.00 h 556 W/m 13.5 C 32.5 C
29.05.2005 18:00 31.8 C 31 % 1011.4 hPa 0.0 l/m 0.5 km/h (0 Bft) W-NW 1.00 h 392 W/m 12.4 C 31.8 C
29.05.2005 19:00 29.1 C 44 % 1011.8 hPa 0.0 l/m 0.0 km/h (0 Bft) N 0.18 h 112 W/m 15.4 C 29.1 C
29.05.2005 20:00 26.0 C 54 % 1013.0 hPa 0.0 l/m 2.2 km/h (1 Bft) SO 0.10 h 35 W/m 16.1 C 26.0 C
29.05.2005 21:00 22.8 C 69 % 1013.4 hPa 0.0 l/m 6.1 km/h (2 Bft) O-SO 0.00 h 8 W/m 16.9 C 22.8 C
29.05.2005 22:00 21.1 C 77 % 1013.6 hPa 0.0 l/m 4.5 km/h (1 Bft) O-SO 0.00 h 0 W/m 16.8 C 21.1 C
29.05.2005 23:00 19.8 C 83 % 1013.8 hPa 0.0 l/m 0.5 km/h (0 Bft) O-SO 0.00 h 0 W/m 16.8 C 19.8 C
Min-Datum _ 25.05.05 26.05.05 29.05.05 - 23.05.05 - - - 24.05.05 25.05.05
_ Min-Zeit 05:21 17:41 18:06 - 00:01 - - - 17:15 05:41
Minimum _ 6.6 C 20 % 1011.2 hPa - 0.0 km/h (0 Bft) - - - 4.1 C 6.0 C
Max-Datum _ 29.05.05 23.05.05 25.05.05 23.05.05 28.05.05 - 25.05.05 24.05.05 29.05.05 29.05.05
_ Max-Zeit 17:31 00:01 05:21 04:05 13:09 - 20:03 11:05 13:10 17:31
Maximum _ 32.7 C 100 % 1028.0 hPa 3.9 l/m 22.5 km/h
W-NW (4 Bft)
- 0.05 h 942 W/m 17.6 C 32.7 C
Durchschnitt _ 18.5 C 71 % 1019.9 hPa #17.9 l/m 2.6 km/h (1 Bft) O-SO #80:17 h 415 W/m 11.8 C 18.4 C

Durchschnitt Minimum Temp.17.7 C
Durchschnitt Maximum Temp.19.2 C
© Kaiko 2005